createdAt,value
2022-10-03T00:02:10.688Z,46.60
2022-10-03T00:05:00.149Z,46.78
2022-10-03T00:07:58.054Z,46.47
2022-10-03T00:10:48.222Z,46.56
2022-10-03T00:13:20.251Z,46.51
2022-10-03T00:15:50.374Z,46.39
2022-10-03T00:18:34.323Z,46.50
2022-10-03T00:21:25.429Z,46.33
2022-10-03T00:24:14.865Z,46.48
2022-10-03T00:27:18.708Z,46.07
2022-10-03T00:30:01.412Z,46.26
2022-10-03T00:32:49.018Z,46.23
2022-10-03T00:35:39.206Z,45.85
2022-10-03T00:38:36.610Z,45.83
2022-10-03T00:41:06.188Z,45.66
2022-10-03T00:43:47.281Z,45.74
2022-10-03T00:46:20.843Z,45.66
2022-10-03T00:48:47.377Z,45.66
2022-10-03T00:51:38.261Z,45.73
2022-10-03T00:54:30.318Z,45.99
2022-10-03T00:57:14.931Z,45.93
2022-10-03T01:00:01.884Z,45.85
2022-10-03T01:02:55.538Z,45.86
2022-10-03T01:05:31.619Z,46.06
2022-10-03T01:08:19.081Z,46.13
2022-10-03T01:10:58.045Z,45.83
2022-10-03T01:13:39.510Z,46.32
2022-10-03T01:16:27.487Z,46.25
2022-10-03T01:19:03.586Z,46.10
2022-10-03T01:21:47.689Z,46.02
2022-10-03T01:24:32.584Z,45.88
2022-10-03T01:27:13.579Z,46.02
2022-10-03T01:30:02.167Z,45.92
2022-10-03T01:33:02.885Z,45.74
2022-10-03T01:35:54.146Z,45.79
2022-10-03T01:38:20.716Z,45.82
2022-10-03T01:41:02.897Z,45.74
2022-10-03T01:43:42.971Z,45.77
2022-10-03T01:46:12.529Z,45.78
2022-10-03T01:49:04.976Z,45.54
2022-10-03T01:52:12.875Z,45.60
2022-10-03T01:54:43.726Z,45.63
2022-10-03T01:57:28.077Z,45.56
2022-10-03T01:59:58.846Z,45.50
2022-10-03T02:02:31.475Z,45.52
2022-10-03T02:05:12.768Z,45.50
2022-10-03T02:08:03.386Z,45.59
2022-10-03T02:11:01.626Z,45.45
2022-10-03T02:13:37.285Z,45.54
2022-10-03T02:16:22.698Z,45.44
2022-10-03T02:19:06.191Z,45.33
2022-10-03T02:21:33.265Z,45.28
2022-10-03T02:24:40.882Z,45.64
2022-10-03T02:27:29.082Z,45.45
2022-10-03T02:30:15.762Z,45.40
2022-10-03T02:33:17.558Z,45.47
2022-10-03T02:36:21.445Z,45.36
2022-10-03T02:38:59.558Z,45.48
2022-10-03T02:41:39.432Z,45.32
2022-10-03T02:44:14.945Z,45.48
2022-10-03T02:47:01.234Z,45.24
2022-10-03T02:49:52.561Z,45.24
2022-10-03T02:52:26.345Z,45.16
2022-10-03T02:55:05.519Z,45.33
2022-10-03T02:57:47.194Z,45.32
2022-10-03T03:00:21.019Z,45.34
2022-10-03T03:03:08.288Z,44.96
2022-10-03T03:05:42.846Z,45.14
2022-10-03T03:08:35.614Z,45.08
2022-10-03T03:11:20.883Z,45.14
2022-10-03T03:14:09.446Z,45.11
2022-10-03T03:16:51.039Z,45.13
2022-10-03T03:19:50.790Z,45.03
2022-10-03T03:22:17.108Z,45.24
2022-10-03T03:25:09.992Z,45.14
2022-10-03T03:28:13.343Z,45.09
2022-10-03T03:31:16.365Z,44.96
2022-10-03T03:34:07.043Z,45.10
2022-10-03T03:36:50.009Z,45.30
2022-10-03T03:39:44.046Z,45.10
2022-10-03T03:42:40.206Z,45.45
2022-10-03T03:45:20.676Z,45.18
2022-10-03T03:48:06.056Z,45.21
2022-10-03T03:50:35.099Z,45.42
2022-10-03T03:53:34.892Z,45.21
2022-10-03T03:56:20.183Z,45.10
2022-10-03T03:58:56.741Z,45.29
2022-10-03T04:01:46.801Z,45.27
2022-10-03T04:04:41.123Z,45.02
2022-10-03T04:07:26.201Z,45.27
2022-10-03T04:10:06.057Z,44.91
2022-10-03T04:12:36.961Z,44.82
2022-10-03T04:15:21.559Z,44.99
2022-10-03T04:18:33.794Z,44.74
2022-10-03T04:21:23.117Z,44.90
2022-10-03T04:24:17.361Z,44.83
2022-10-03T04:26:52.920Z,44.65
2022-10-03T04:29:37.614Z,44.92
2022-10-03T04:32:41.559Z,44.93
2022-10-03T04:35:45.809Z,44.93
2022-10-03T04:39:00.600Z,44.90
2022-10-03T04:42:09.349Z,44.82
2022-10-03T04:44:55.058Z,44.87
2022-10-03T04:47:53.961Z,44.90
2022-10-03T04:50:26.027Z,44.93
2022-10-03T04:53:19.521Z,44.79
2022-10-03T04:55:54.614Z,44.96
2022-10-03T04:58:32.101Z,44.81
2022-10-03T05:01:29.774Z,44.83
2022-10-03T05:04:11.173Z,44.80
2022-10-03T05:07:14.326Z,44.64
2022-10-03T05:10:05.837Z,44.83
2022-10-03T05:12:58.330Z,44.68
2022-10-03T05:15:28.039Z,44.71
2022-10-03T05:18:02.356Z,44.67
2022-10-03T05:20:52.902Z,44.88
2022-10-03T05:23:24.829Z,44.72
2022-10-03T05:26:23.118Z,44.69
2022-10-03T05:29:05.443Z,44.58
2022-10-03T05:31:38.786Z,44.54
2022-10-03T05:34:28.045Z,44.70
2022-10-03T05:37:15.809Z,44.49
2022-10-03T05:39:45.669Z,44.44
2022-10-03T05:42:36.817Z,44.63
2022-10-03T05:45:21.463Z,44.75
2022-10-03T05:47:55.355Z,44.53
2022-10-03T05:51:04.065Z,44.47
2022-10-03T05:53:42.831Z,44.52
2022-10-03T05:56:40.899Z,44.61
2022-10-03T05:59:23.013Z,44.73
2022-10-03T06:01:59.399Z,44.75
2022-10-03T06:04:56.905Z,44.75
2022-10-03T06:07:26.413Z,44.78
2022-10-03T06:10:36.096Z,44.50
2022-10-03T06:13:40.082Z,44.74
2022-10-03T06:16:43.867Z,44.58
2022-10-03T06:19:10.220Z,44.33
2022-10-03T06:22:00.823Z,44.33
2022-10-03T06:24:32.960Z,44.24
2022-10-03T06:27:10.438Z,44.46
2022-10-03T06:30:11.685Z,44.13
2022-10-03T06:32:56.897Z,44.17
2022-10-03T06:35:32.691Z,44.45
2022-10-03T06:38:37.041Z,44.29
2022-10-03T06:41:41.201Z,44.33
2022-10-03T06:44:29.625Z,44.26
2022-10-03T06:46:55.970Z,44.41
2022-10-03T06:49:40.882Z,44.00
2022-10-03T06:52:19.807Z,43.98
2022-10-03T06:54:55.227Z,43.80
2022-10-03T06:57:54.325Z,43.88
2022-10-03T07:00:22.052Z,44.07
2022-10-03T07:03:10.215Z,44.21
2022-10-03T07:06:07.754Z,44.38
2022-10-03T07:09:00.259Z,44.40
2022-10-03T07:11:57.290Z,44.09
2022-10-03T07:14:38.953Z,44.09
2022-10-03T07:17:30.096Z,44.00
2022-10-03T07:19:56.701Z,44.16
2022-10-03T07:23:00.213Z,43.98
2022-10-03T07:25:32.730Z,44.08
2022-10-03T07:28:32.385Z,44.21
2022-10-03T07:31:21.035Z,44.23
2022-10-03T07:34:09.408Z,44.29
2022-10-03T07:37:32.407Z,44.15
2022-10-03T07:40:12.716Z,44.21
2022-10-03T07:43:16.859Z,44.28
2022-10-03T07:46:06.092Z,44.31
2022-10-03T07:49:06.643Z,44.23
2022-10-03T07:52:11.193Z,44.48
2022-10-03T07:54:49.426Z,44.51
2022-10-03T07:57:36.589Z,44.42
2022-10-03T08:00:12.016Z,44.46
2022-10-03T08:03:14.605Z,44.47
2022-10-03T08:06:05.747Z,44.27
2022-10-03T08:08:54.093Z,44.34
2022-10-03T08:11:27.651Z,44.20
2022-10-03T08:14:19.145Z,44.30
2022-10-03T08:17:01.218Z,44.17
2022-10-03T08:19:45.609Z,44.29
2022-10-03T08:22:16.083Z,44.23
2022-10-03T08:25:16.838Z,44.07
2022-10-03T08:28:00.503Z,43.97
2022-10-03T08:30:45.654Z,44.06
2022-10-03T08:33:42.780Z,44.00
2022-10-03T08:36:31.023Z,45.61
2022-10-03T08:39:12.845Z,47.26
2022-10-03T08:42:18.714Z,47.60
2022-10-03T08:45:06.354Z,47.20
2022-10-03T08:48:09.075Z,47.04
2022-10-03T08:50:54.255Z,47.38
2022-10-03T08:54:00.455Z,46.70
2022-10-03T08:56:59.232Z,47.61
2022-10-03T08:59:51.495Z,48.03
2022-10-03T09:02:20.963Z,48.20
2022-10-03T09:05:01.099Z,48.12
2022-10-03T09:07:34.104Z,48.36
2022-10-03T09:10:24.853Z,48.05
2022-10-03T09:13:06.663Z,47.76
2022-10-03T09:16:14.872Z,48.35
2022-10-03T09:19:02.958Z,48.17
2022-10-03T09:21:40.778Z,48.54
2022-10-03T09:24:21.683Z,48.46
2022-10-03T09:26:54.132Z,48.62
2022-10-03T09:29:37.859Z,48.66
2022-10-03T09:32:13.304Z,48.83
2022-10-03T09:35:17.425Z,48.39
2022-10-03T09:37:52.789Z,46.26
2022-10-03T09:40:57.215Z,45.76
2022-10-03T09:43:46.329Z,45.58
2022-10-03T09:46:36.559Z,45.23
2022-10-03T09:49:33.276Z,44.92
2022-10-03T09:52:25.156Z,44.75
2022-10-03T09:55:12.642Z,44.46
2022-10-03T09:58:10.135Z,44.02
2022-10-03T10:00:45.683Z,43.62
2022-10-03T10:03:44.544Z,44.01
2022-10-03T10:06:55.630Z,43.65
2022-10-03T10:09:40.893Z,43.74
2022-10-03T10:12:13.951Z,43.86
2022-10-03T10:14:50.315Z,43.90
2022-10-03T10:17:26.346Z,44.06
2022-10-03T10:20:01.301Z,44.17
2022-10-03T10:22:49.866Z,43.99
2022-10-03T10:25:53.227Z,44.23
2022-10-03T10:28:36.474Z,43.94
2022-10-03T10:31:11.127Z,44.06
2022-10-03T10:34:02.056Z,44.12
2022-10-03T10:36:51.177Z,44.11
2022-10-03T10:40:02.656Z,43.93
2022-10-03T10:42:53.408Z,43.96
2022-10-03T10:45:56.924Z,43.86
2022-10-03T10:49:03.860Z,44.03
2022-10-03T10:51:30.416Z,43.77
2022-10-03T10:54:15.245Z,43.55
2022-10-03T10:56:44.423Z,43.82
2022-10-03T10:59:32.406Z,43.64
2022-10-03T11:02:40.590Z,43.57
2022-10-03T11:05:25.257Z,43.67
2022-10-03T11:08:13.910Z,43.74
2022-10-03T11:11:26.234Z,43.47
2022-10-03T11:13:55.566Z,43.25
2022-10-03T11:16:40.584Z,43.27
2022-10-03T11:19:32.034Z,43.22
2022-10-03T11:22:33.025Z,43.15
2022-10-03T11:25:08.595Z,43.37
2022-10-03T11:27:55.447Z,43.51
2022-10-03T11:30:43.343Z,43.68
2022-10-03T11:33:46.898Z,43.54
2022-10-03T11:36:41.649Z,43.10
2022-10-03T11:39:27.679Z,43.44
2022-10-03T11:42:33.406Z,43.32
2022-10-03T11:45:04.493Z,43.04
2022-10-03T11:47:45.230Z,43.05
2022-10-03T11:50:18.932Z,42.79
2022-10-03T11:53:01.938Z,42.74
2022-10-03T11:55:59.889Z,42.86
2022-10-03T11:58:47.478Z,42.97
2022-10-03T12:01:32.190Z,43.00
2022-10-03T12:04:32.006Z,42.95
2022-10-03T12:07:24.725Z,43.12
2022-10-03T12:10:17.355Z,43.00
2022-10-03T12:12:46.023Z,43.28
2022-10-03T12:15:31.365Z,43.11
2022-10-03T12:18:07.046Z,43.07
2022-10-03T12:20:40.120Z,43.00
2022-10-03T12:23:21.717Z,43.11
2022-10-03T12:25:49.150Z,43.05
2022-10-03T12:28:20.863Z,43.17
2022-10-03T12:30:56.908Z,42.92
2022-10-03T12:33:44.943Z,43.26
2022-10-03T12:36:16.357Z,43.04
2022-10-03T12:38:51.137Z,43.12
2022-10-03T12:41:54.730Z,43.26
2022-10-03T12:44:40.811Z,43.27
2022-10-03T12:47:32.303Z,43.10
2022-10-03T12:50:25.595Z,43.15
2022-10-03T12:53:08.500Z,43.35
2022-10-03T12:55:38.326Z,43.10
2022-10-03T12:58:33.547Z,43.31
2022-10-03T13:01:09.033Z,43.26
2022-10-03T13:03:52.091Z,43.50
2022-10-03T13:07:04.546Z,43.09
2022-10-03T13:09:38.601Z,43.23
2022-10-03T13:12:25.531Z,43.29
2022-10-03T13:15:31.845Z,43.47
2022-10-03T13:18:19.633Z,43.25
2022-10-03T13:21:45.625Z,43.04
2022-10-03T13:24:42.468Z,43.33
2022-10-03T13:27:20.362Z,43.08
2022-10-03T13:29:48.745Z,43.12
2022-10-03T13:32:31.732Z,43.21
2022-10-03T13:35:20.231Z,43.11
2022-10-03T13:38:13.265Z,43.32
2022-10-03T13:40:43.571Z,43.20
2022-10-03T13:43:13.595Z,43.45
2022-10-03T13:45:42.305Z,43.23
2022-10-03T13:48:12.185Z,43.28
2022-10-03T13:50:52.875Z,43.45
2022-10-03T13:53:35.914Z,43.60
2022-10-03T13:56:11.612Z,43.26
2022-10-03T13:58:45.565Z,43.36
2022-10-03T14:01:24.223Z,43.22
2022-10-03T14:04:28.836Z,43.29
2022-10-03T14:07:15.535Z,43.42
2022-10-03T14:09:57.820Z,43.34
2022-10-03T14:12:54.766Z,43.28
2022-10-03T14:15:39.319Z,43.40
2022-10-03T14:18:15.477Z,43.17
2022-10-03T14:21:00.970Z,43.50
2022-10-03T14:24:05.577Z,43.47
2022-10-03T14:26:41.065Z,43.62
2022-10-03T14:29:10.505Z,43.57
2022-10-03T14:31:56.263Z,43.40
2022-10-03T14:34:42.473Z,43.52
2022-10-03T14:37:24.248Z,43.64
2022-10-03T14:39:58.848Z,43.66
2022-10-03T14:42:32.351Z,43.51
2022-10-03T14:45:29.586Z,43.50
2022-10-03T14:48:20.423Z,43.39
2022-10-03T14:50:48.765Z,43.34
2022-10-03T14:53:20.446Z,43.36
2022-10-03T14:56:05.125Z,43.42
2022-10-03T14:58:44.099Z,43.57
2022-10-03T15:01:14.771Z,43.60
2022-10-03T15:04:04.273Z,43.53
2022-10-03T15:06:54.663Z,43.25
2022-10-03T15:09:40.841Z,43.40
2022-10-03T15:12:20.078Z,43.39
2022-10-03T15:14:56.406Z,43.57
2022-10-03T15:17:24.891Z,43.66
2022-10-03T15:19:55.352Z,43.11
2022-10-03T15:22:36.225Z,43.48
2022-10-03T15:25:13.859Z,43.44
2022-10-03T15:27:41.204Z,43.38
2022-10-03T15:30:08.173Z,43.29
2022-10-03T15:32:37.968Z,43.40
2022-10-03T15:35:05.118Z,43.40
2022-10-03T15:37:37.317Z,43.54
2022-10-03T15:40:12.449Z,43.51
2022-10-03T15:43:03.137Z,43.45
2022-10-03T15:45:32.195Z,43.56
2022-10-03T15:48:00.533Z,43.74
2022-10-03T15:50:30.839Z,43.48
2022-10-03T15:53:24.087Z,43.37
2022-10-03T15:55:53.107Z,43.11
2022-10-03T15:58:25.390Z,43.00
2022-10-03T16:01:08.676Z,42.99
2022-10-03T16:03:49.749Z,43.00
2022-10-03T16:06:32.324Z,43.31
2022-10-03T16:09:11.031Z,42.87
2022-10-03T16:11:55.799Z,43.19
2022-10-03T16:14:23.254Z,43.30
2022-10-03T16:16:55.673Z,43.35
2022-10-03T16:19:33.739Z,43.45
2022-10-03T16:22:19.237Z,43.81
2022-10-03T16:24:52.162Z,43.85
2022-10-03T16:27:20.990Z,44.47
2022-10-03T16:30:14.803Z,44.07
2022-10-03T16:32:55.679Z,44.18
2022-10-03T16:35:43.913Z,44.71
2022-10-03T16:38:24.415Z,44.93
2022-10-03T16:40:55.779Z,44.77
2022-10-03T16:43:22.326Z,44.78
2022-10-03T16:45:49.099Z,44.97
2022-10-03T16:48:47.805Z,45.51
2022-10-03T16:51:22.040Z,44.93
2022-10-03T16:53:50.636Z,44.83
2022-10-03T16:56:19.666Z,45.18
2022-10-03T16:58:53.939Z,44.90
2022-10-03T17:01:33.406Z,45.07
2022-10-03T17:04:16.113Z,44.74
2022-10-03T17:06:45.751Z,45.11
2022-10-03T17:09:28.346Z,44.68
2022-10-03T17:11:58.916Z,44.97
2022-10-03T17:14:28.184Z,44.78
2022-10-03T17:17:08.732Z,44.69
2022-10-03T17:20:08.145Z,45.16
2022-10-03T17:22:41.262Z,44.92
2022-10-03T17:25:35.953Z,45.10
2022-10-03T17:28:04.348Z,45.36
2022-10-03T17:30:47.675Z,44.82
2022-10-03T17:33:22.550Z,45.19
2022-10-03T17:36:32.652Z,45.28
2022-10-03T17:39:03.684Z,45.17
2022-10-03T17:42:09.051Z,45.46
2022-10-03T17:44:59.583Z,45.70
2022-10-03T17:47:48.551Z,45.55
2022-10-03T17:50:20.730Z,46.20
2022-10-03T17:52:47.254Z,46.58
2022-10-03T17:55:27.420Z,46.44
2022-10-03T17:57:55.681Z,45.53
2022-10-03T18:00:24.101Z,45.69
2022-10-03T18:02:54.907Z,45.59
2022-10-03T18:05:28.213Z,45.54
2022-10-03T18:07:55.010Z,45.44
2022-10-03T18:10:27.393Z,45.16
2022-10-03T18:12:55.727Z,45.01
2022-10-03T18:15:42.361Z,45.38
2022-10-03T18:18:48.316Z,45.24
2022-10-03T18:21:32.535Z,45.89
2022-10-03T18:24:12.831Z,45.63
2022-10-03T18:26:47.788Z,45.82
2022-10-03T18:29:32.665Z,45.98
2022-10-03T18:32:09.951Z,45.95
2022-10-03T18:34:47.228Z,46.30
2022-10-03T18:37:23.777Z,46.68
2022-10-03T18:39:54.405Z,46.73
2022-10-03T18:42:23.837Z,46.41
2022-10-03T18:44:50.276Z,46.63
2022-10-03T18:47:17.341Z,46.57
2022-10-03T18:49:45.566Z,46.36
2022-10-03T18:52:19.434Z,47.00
2022-10-03T18:55:34.646Z,46.53
2022-10-03T18:58:03.133Z,46.73
2022-10-03T19:00:30.182Z,46.96
2022-10-03T19:03:08.698Z,46.50
2022-10-03T19:08:11.251Z,46.20
2022-10-03T19:10:56.598Z,46.72
2022-10-03T19:13:38.262Z,46.99
2022-10-03T19:16:21.993Z,47.19
2022-10-03T19:19:11.030Z,47.13
2022-10-03T19:21:38.969Z,47.21
2022-10-03T19:24:13.963Z,46.99
2022-10-03T19:26:48.774Z,47.20
2022-10-03T19:29:36.361Z,47.05
2022-10-03T19:32:08.692Z,46.98
2022-10-03T19:34:37.781Z,47.24
2022-10-03T19:37:07.556Z,46.93
2022-10-03T19:39:34.038Z,46.85
2022-10-03T19:42:30.273Z,46.73
2022-10-03T19:44:57.312Z,46.30
2022-10-03T19:47:38.050Z,46.37
2022-10-03T19:50:20.963Z,45.86
2022-10-03T19:52:50.613Z,45.93
2022-10-03T19:55:27.571Z,45.91
2022-10-03T19:58:04.000Z,46.14
2022-10-03T20:00:37.510Z,46.00
2022-10-03T20:03:21.525Z,45.99
2022-10-03T20:06:00.191Z,45.81
2022-10-03T20:08:44.375Z,45.99
2022-10-03T20:11:16.086Z,45.79
2022-10-03T20:13:43.835Z,46.16
2022-10-03T20:16:20.672Z,45.93
2022-10-03T20:18:49.250Z,46.11
2022-10-03T20:21:18.540Z,45.93
2022-10-03T20:23:45.533Z,45.86
2022-10-03T20:26:22.202Z,45.94
2022-10-03T20:28:56.502Z,45.82
2022-10-03T20:31:24.060Z,46.28
2022-10-03T20:33:52.281Z,46.21
2022-10-03T20:36:26.005Z,45.93
2022-10-03T20:39:12.317Z,46.00
2022-10-03T20:41:42.030Z,46.21
2022-10-03T20:44:21.658Z,46.03
2022-10-03T20:46:49.581Z,46.42
2022-10-03T20:49:28.182Z,46.09
2022-10-03T20:51:54.511Z,46.33
2022-10-03T20:54:22.246Z,46.45
2022-10-03T20:57:15.532Z,46.51
2022-10-03T20:59:45.490Z,46.52
2022-10-03T21:02:38.192Z,46.43
2022-10-03T21:05:06.101Z,46.19
2022-10-03T21:07:35.065Z,46.24
2022-10-03T21:10:10.001Z,46.44
2022-10-03T21:12:41.208Z,46.29
2022-10-03T21:15:13.117Z,45.80
2022-10-03T21:17:41.723Z,45.60
2022-10-03T21:20:12.986Z,45.41
2022-10-03T21:22:39.452Z,45.41
2022-10-03T21:25:11.976Z,45.42
2022-10-03T21:27:38.567Z,45.43
2022-10-03T21:30:18.730Z,45.05
2022-10-03T21:33:10.903Z,45.12
2022-10-03T21:35:40.973Z,45.06
2022-10-03T21:38:30.893Z,45.21
2022-10-03T21:41:07.801Z,45.21
2022-10-03T21:43:40.146Z,45.33
2022-10-03T21:46:28.909Z,45.42
2022-10-03T21:49:32.930Z,45.47
2022-10-03T21:52:14.702Z,45.45
2022-10-03T21:55:05.521Z,45.55
2022-10-03T21:57:39.373Z,45.25
2022-10-03T22:00:14.325Z,45.44
2022-10-03T22:02:50.087Z,45.68
2022-10-03T22:05:31.246Z,45.66
2022-10-03T22:07:57.701Z,45.57
2022-10-03T22:10:28.188Z,45.74
2022-10-03T22:12:59.647Z,45.83
2022-10-03T22:15:56.766Z,45.56
2022-10-03T22:18:23.242Z,45.84
2022-10-03T22:21:18.401Z,45.74
2022-10-03T22:23:58.947Z,45.51
2022-10-03T22:26:46.325Z,45.58
2022-10-03T22:29:23.835Z,45.41
2022-10-03T22:32:20.674Z,45.20
2022-10-03T22:34:52.883Z,45.08
2022-10-03T22:37:19.370Z,45.12
2022-10-03T22:39:48.339Z,45.21
2022-10-03T22:42:14.937Z,45.19
2022-10-03T22:44:43.540Z,45.27
2022-10-03T22:47:21.573Z,45.12
2022-10-03T22:49:48.177Z,45.18
2022-10-03T22:52:21.224Z,45.30
2022-10-03T22:54:47.675Z,45.50
2022-10-03T22:57:14.129Z,45.16
2022-10-03T22:59:47.778Z,45.42
2022-10-03T23:02:14.244Z,45.30
2022-10-03T23:04:44.782Z,45.38
2022-10-03T23:07:46.469Z,45.19
2022-10-03T23:10:38.790Z,45.34
2022-10-03T23:13:28.562Z,45.08
2022-10-03T23:15:59.678Z,44.78
2022-10-03T23:18:43.754Z,44.83
2022-10-03T23:21:11.010Z,44.74
2022-10-03T23:24:04.957Z,44.74
2022-10-03T23:26:53.190Z,44.97
2022-10-03T23:29:20.195Z,44.82
2022-10-03T23:31:56.402Z,44.78
2022-10-03T23:34:37.931Z,44.82
2022-10-03T23:37:26.028Z,44.72
2022-10-03T23:39:55.355Z,44.92
2022-10-03T23:42:30.907Z,44.96
2022-10-03T23:44:57.648Z,44.69
2022-10-03T23:47:30.577Z,44.64
2022-10-03T23:49:57.033Z,44.69
2022-10-03T23:52:26.922Z,44.85
2022-10-03T23:54:54.309Z,44.87
2022-10-03T23:57:20.804Z,44.67
2022-10-03T23:59:47.259Z,44.76
